Aviation Digital Data Service (ADDS)

Output produced by TAFs form (0220 UTC 01 May 2016)
found at http://www.aviationweather.gov/adds/tafs/
 
KMDT 302347Z 0100/0124 14006KT P6SM SCT030 OVC035 
     FM010600 10006KT 4SM -RA BR OVC025 
     FM011200 13009KT 1SM -RA BR OVC007